createdAt,value
2022-07-31T00:00:13.606Z,22.94
2022-07-31T00:02:39.937Z,22.89
2022-07-31T00:05:06.311Z,22.82
2022-07-31T00:07:32.708Z,22.82
2022-07-31T00:09:59.032Z,22.78
2022-07-31T00:12:25.421Z,22.73
2022-07-31T00:14:51.798Z,22.68
2022-07-31T00:17:18.250Z,22.64
2022-07-31T00:19:44.567Z,22.60
2022-07-31T00:22:10.946Z,22.58
2022-07-31T00:24:37.247Z,22.51
2022-07-31T00:27:03.812Z,22.47
2022-07-31T00:29:30.424Z,22.50
2022-07-31T00:31:56.817Z,22.43
2022-07-31T00:34:23.171Z,22.34
2022-07-31T00:36:49.703Z,22.32
2022-07-31T00:39:16.244Z,22.34
2022-07-31T00:41:42.582Z,22.32
2022-07-31T00:44:12.130Z,22.29
2022-07-31T00:46:38.845Z,22.24
2022-07-31T00:49:06.698Z,22.21
2022-07-31T00:51:33.009Z,22.14
2022-07-31T00:53:59.353Z,22.08
2022-07-31T00:56:25.793Z,22.07
2022-07-31T00:58:52.205Z,22.05
2022-07-31T01:01:18.942Z,22.05
2022-07-31T01:03:45.310Z,22.08
2022-07-31T01:06:11.675Z,22.06
2022-07-31T01:08:38.000Z,22.01
2022-07-31T01:11:04.327Z,21.94
2022-07-31T01:13:31.860Z,21.94
2022-07-31T01:15:58.297Z,21.93
2022-07-31T01:18:24.644Z,21.95
2022-07-31T01:20:51.077Z,22.01
2022-07-31T01:23:17.538Z,21.98
2022-07-31T01:25:44.114Z,21.95
2022-07-31T01:28:10.504Z,21.95
2022-07-31T01:30:36.815Z,21.93
2022-07-31T01:33:03.647Z,21.88
2022-07-31T01:35:29.936Z,21.88
2022-07-31T01:37:56.394Z,21.89
2022-07-31T01:40:22.681Z,21.84
2022-07-31T01:42:48.955Z,21.78
2022-07-31T01:45:15.370Z,21.74
2022-07-31T01:47:41.714Z,21.67
2022-07-31T01:50:08.114Z,21.59
2022-07-31T01:52:41.984Z,21.61
2022-07-31T01:55:08.338Z,21.62
2022-07-31T01:57:34.679Z,21.58
2022-07-31T02:00:01.255Z,21.54
2022-07-31T02:02:27.884Z,21.56
2022-07-31T02:04:54.190Z,21.48
2022-07-31T02:07:20.458Z,21.38
2022-07-31T02:09:52.369Z,21.38
2022-07-31T02:12:33.859Z,21.40
2022-07-31T02:15:00.372Z,21.36
2022-07-31T02:17:26.659Z,21.36
2022-07-31T02:19:59.933Z,21.39
2022-07-31T02:22:27.364Z,21.35
2022-07-31T02:24:53.696Z,21.34
2022-07-31T02:27:53.960Z,21.27
2022-07-31T02:30:06.388Z,21.24
2022-07-31T02:32:32.664Z,21.22
2022-07-31T02:34:59.157Z,21.13
2022-07-31T02:37:25.434Z,21.10
2022-07-31T02:39:51.787Z,21.09
2022-07-31T02:42:18.212Z,21.11
2022-07-31T02:44:44.587Z,21.03
2022-07-31T02:47:10.994Z,21.02
2022-07-31T02:49:37.265Z,20.98
2022-07-31T02:52:03.780Z,20.96
2022-07-31T02:54:30.283Z,20.94
2022-07-31T02:56:57.105Z,20.87
2022-07-31T02:59:23.485Z,20.82
2022-07-31T03:01:49.834Z,20.80
2022-07-31T03:04:16.188Z,20.74
2022-07-31T03:06:42.514Z,20.69
2022-07-31T03:09:08.856Z,20.68
2022-07-31T03:11:35.191Z,20.63
2022-07-31T03:14:01.495Z,20.66
2022-07-31T03:16:27.790Z,20.66
2022-07-31T03:18:54.088Z,20.68
2022-07-31T03:21:20.407Z,20.73
2022-07-31T03:23:46.978Z,20.68
2022-07-31T03:26:13.307Z,20.56
2022-07-31T03:28:39.624Z,20.57
2022-07-31T03:31:06.030Z,20.47
2022-07-31T03:33:32.437Z,20.40
2022-07-31T03:35:58.793Z,20.44
2022-07-31T03:38:38.728Z,20.45
2022-07-31T03:41:09.587Z,20.41
2022-07-31T03:43:44.223Z,20.34
2022-07-31T03:46:14.545Z,20.30
2022-07-31T03:48:40.850Z,20.31
2022-07-31T03:51:07.283Z,20.30
2022-07-31T03:53:33.605Z,20.27
2022-07-31T03:55:59.911Z,20.21
2022-07-31T03:58:26.188Z,20.20
2022-07-31T04:00:53.586Z,20.14
2022-07-31T04:03:20.814Z,20.13
2022-07-31T04:05:47.232Z,20.12
2022-07-31T04:08:13.540Z,20.10
2022-07-31T04:10:39.837Z,20.08
2022-07-31T04:13:06.098Z,20.00
2022-07-31T04:15:32.412Z,20.00
2022-07-31T04:17:58.730Z,19.99
2022-07-31T04:20:25.155Z,20.04
2022-07-31T04:22:51.502Z,20.06
2022-07-31T04:25:22.079Z,20.07
2022-07-31T04:27:49.034Z,20.03
2022-07-31T04:30:15.432Z,20.11
2022-07-31T04:32:42.879Z,20.22
2022-07-31T04:35:09.257Z,20.32
2022-07-31T04:37:35.547Z,20.42
2022-07-31T04:40:01.921Z,20.54
2022-07-31T04:42:28.214Z,20.55
2022-07-31T04:44:59.348Z,20.59
2022-07-31T04:47:25.633Z,20.56
2022-07-31T04:49:52.265Z,20.68
2022-07-31T04:52:18.586Z,20.76
2022-07-31T04:54:45.092Z,20.72
2022-07-31T04:57:11.414Z,20.68
2022-07-31T04:59:59.554Z,20.78
2022-07-31T05:02:24.055Z,20.88
2022-07-31T05:04:54.337Z,20.97
2022-07-31T05:07:23.144Z,20.77
2022-07-31T05:09:49.731Z,20.65
2022-07-31T05:12:16.060Z,20.57
2022-07-31T05:14:43.511Z,20.58
2022-07-31T05:17:09.833Z,20.57
2022-07-31T05:19:36.125Z,20.59
2022-07-31T05:22:02.914Z,20.57
2022-07-31T05:24:33.772Z,20.63
2022-07-31T05:27:00.463Z,20.71
2022-07-31T05:29:26.742Z,20.74
2022-07-31T05:31:59.517Z,20.67
2022-07-31T05:34:36.963Z,20.61
2022-07-31T05:37:03.468Z,20.67
2022-07-31T05:39:31.881Z,20.75
2022-07-31T05:41:58.278Z,20.83
2022-07-31T05:44:24.833Z,20.88
2022-07-31T05:49:16.489Z,21.26
2022-07-31T05:51:42.869Z,21.62
2022-07-31T05:54:09.192Z,21.79
2022-07-31T05:56:35.511Z,21.86
2022-07-31T05:59:01.839Z,21.82
2022-07-31T06:01:28.205Z,21.84
2022-07-31T06:03:54.504Z,21.95
2022-07-31T06:06:21.053Z,22.11
2022-07-31T06:08:47.376Z,22.24
2022-07-31T06:11:13.677Z,22.31
2022-07-31T06:13:40.039Z,22.37
2022-07-31T06:16:06.347Z,22.39
2022-07-31T06:18:32.658Z,22.46
2022-07-31T06:20:59.195Z,22.62
2022-07-31T06:23:32.202Z,22.78
2022-07-31T06:25:58.820Z,22.91
2022-07-31T06:28:35.380Z,23.04
2022-07-31T06:31:11.387Z,23.19
2022-07-31T06:33:38.137Z,23.22
2022-07-31T06:36:04.578Z,23.28
2022-07-31T06:38:30.935Z,23.19
2022-07-31T06:40:57.238Z,23.19
2022-07-31T06:43:24.055Z,23.19
2022-07-31T06:45:52.094Z,23.25
2022-07-31T06:48:18.843Z,23.23
2022-07-31T06:50:45.124Z,23.23
2022-07-31T06:53:11.578Z,23.19
2022-07-31T06:55:37.941Z,23.26
2022-07-31T06:58:10.793Z,23.33
2022-07-31T07:00:37.191Z,23.40
2022-07-31T07:03:03.466Z,23.43
2022-07-31T07:05:29.812Z,23.34
2022-07-31T07:07:56.286Z,23.49
2022-07-31T07:10:22.576Z,23.72
2022-07-31T07:12:48.891Z,23.74
2022-07-31T07:15:15.248Z,23.71
2022-07-31T07:17:41.559Z,23.70
2022-07-31T07:20:07.857Z,23.90
2022-07-31T07:22:34.205Z,24.13
2022-07-31T07:25:00.547Z,24.24
2022-07-31T07:27:26.860Z,24.47
2022-07-31T07:29:53.247Z,24.60
2022-07-31T07:32:19.626Z,24.63
2022-07-31T07:34:46.175Z,24.53
2022-07-31T07:37:12.504Z,24.45
2022-07-31T07:39:38.892Z,24.42
2022-07-31T07:42:05.570Z,24.42
2022-07-31T07:44:32.138Z,24.45
2022-07-31T07:46:58.495Z,24.46
2022-07-31T07:49:24.901Z,24.52
2022-07-31T07:51:59.041Z,24.53
2022-07-31T07:54:26.572Z,24.55
2022-07-31T07:56:52.964Z,24.50
2022-07-31T07:59:19.268Z,24.49
2022-07-31T08:01:45.674Z,24.59
2022-07-31T08:04:12.073Z,24.68
2022-07-31T08:06:38.384Z,24.82
2022-07-31T08:09:04.770Z,24.89
2022-07-31T08:11:31.121Z,24.93
2022-07-31T08:13:57.481Z,25.01
2022-07-31T08:16:23.928Z,25.15
2022-07-31T08:18:50.251Z,25.07
2022-07-31T08:21:17.026Z,25.03
2022-07-31T08:23:43.530Z,25.01
2022-07-31T08:26:09.961Z,25.02
2022-07-31T08:28:37.821Z,25.08
2022-07-31T08:31:04.178Z,25.16
2022-07-31T08:33:30.527Z,24.98
2022-07-31T08:35:57.053Z,25.04
2022-07-31T08:38:26.426Z,24.99
2022-07-31T08:40:52.968Z,25.03
2022-07-31T08:44:00.618Z,24.95
2022-07-31T08:46:05.673Z,24.91
2022-07-31T08:48:31.966Z,25.07
2022-07-31T08:50:58.319Z,25.13
2022-07-31T08:53:26.949Z,25.13
2022-07-31T08:55:57.071Z,25.08
2022-07-31T08:58:24.602Z,24.96
2022-07-31T09:00:51.786Z,24.90
2022-07-31T09:03:18.361Z,24.89
2022-07-31T09:05:46.518Z,24.91
2022-07-31T09:08:14.666Z,24.89
2022-07-31T09:10:45.054Z,24.93
2022-07-31T09:13:26.336Z,24.98
2022-07-31T09:15:54.757Z,24.97
2022-07-31T09:18:21.079Z,25.04
2022-07-31T09:20:47.471Z,25.13
2022-07-31T09:23:16.723Z,25.25
2022-07-31T09:25:43.191Z,25.29
2022-07-31T09:28:09.696Z,25.34
2022-07-31T09:30:36.015Z,25.41
2022-07-31T09:33:22.299Z,25.55
2022-07-31T09:35:48.665Z,25.61
2022-07-31T09:38:14.988Z,25.63
2022-07-31T09:40:56.736Z,25.59
2022-07-31T09:43:24.073Z,25.58
2022-07-31T09:45:50.414Z,25.56
2022-07-31T09:48:26.473Z,25.55
2022-07-31T09:50:53.400Z,25.53
2022-07-31T09:53:20.007Z,25.59
2022-07-31T09:55:46.329Z,25.66
2022-07-31T09:58:13.926Z,25.72
2022-07-31T10:00:40.236Z,25.66
2022-07-31T10:03:06.590Z,25.56
2022-07-31T10:05:32.901Z,25.44
2022-07-31T10:07:59.266Z,25.40
2022-07-31T10:10:25.691Z,25.48
2022-07-31T10:12:52.029Z,25.44
2022-07-31T10:15:18.637Z,25.46
2022-07-31T10:17:45.012Z,25.43
2022-07-31T10:20:11.383Z,25.39
2022-07-31T10:22:37.697Z,25.43
2022-07-31T10:25:04.141Z,25.45
2022-07-31T10:27:30.538Z,25.52
2022-07-31T10:29:58.632Z,25.50
2022-07-31T10:32:24.980Z,25.57
2022-07-31T10:34:51.342Z,25.63
2022-07-31T10:37:17.671Z,25.61
2022-07-31T10:39:44.065Z,25.56
2022-07-31T10:42:10.390Z,25.57
2022-07-31T10:44:38.773Z,25.52
2022-07-31T10:47:05.554Z,25.56
2022-07-31T10:49:32.279Z,25.59
2022-07-31T10:51:59.237Z,25.62
2022-07-31T10:54:25.721Z,25.58
2022-07-31T10:56:52.045Z,25.65
2022-07-31T10:59:18.386Z,25.66
2022-07-31T11:01:53.028Z,25.68
2022-07-31T11:04:19.880Z,25.75
2022-07-31T11:06:46.306Z,25.77
2022-07-31T11:09:12.647Z,25.83
2022-07-31T11:11:38.965Z,25.91
2022-07-31T11:14:05.396Z,25.93
2022-07-31T11:16:34.213Z,26.04
2022-07-31T11:19:00.528Z,26.09
2022-07-31T11:21:38.482Z,26.16
2022-07-31T11:24:09.961Z,26.21
2022-07-31T11:26:41.634Z,26.29
2022-07-31T11:29:58.899Z,26.34
2022-07-31T11:31:58.076Z,26.37
2022-07-31T11:34:24.425Z,26.30
2022-07-31T11:36:51.723Z,26.35
2022-07-31T11:39:18.277Z,26.41
2022-07-31T11:41:45.596Z,26.45
2022-07-31T11:44:12.223Z,26.43
2022-07-31T11:46:39.017Z,26.50
2022-07-31T11:49:05.558Z,26.50
2022-07-31T11:51:32.121Z,26.52
2022-07-31T11:53:58.445Z,26.54
2022-07-31T11:56:24.982Z,26.46
2022-07-31T11:58:51.334Z,26.46
2022-07-31T12:01:20.345Z,26.44
2022-07-31T12:03:46.734Z,26.38
2022-07-31T12:06:13.087Z,26.41
2022-07-31T12:08:41.181Z,26.39
2022-07-31T12:11:07.829Z,26.37
2022-07-31T12:13:34.236Z,26.35
2022-07-31T12:16:00.526Z,26.36
2022-07-31T12:18:27.076Z,26.34
2022-07-31T12:20:53.433Z,26.45
2022-07-31T12:23:38.614Z,26.48
2022-07-31T12:26:06.202Z,26.45
2022-07-31T12:28:32.486Z,26.45
2022-07-31T12:30:59.729Z,26.40
2022-07-31T12:33:26.025Z,26.46
2022-07-31T12:35:56.267Z,26.54
2022-07-31T12:38:38.305Z,26.56
2022-07-31T12:41:09.875Z,26.56
2022-07-31T12:43:37.673Z,26.60
2022-07-31T12:46:04.034Z,26.59
2022-07-31T12:48:33.758Z,26.60
2022-07-31T12:51:02.614Z,26.61
2022-07-31T12:53:28.884Z,26.63
2022-07-31T12:55:55.261Z,26.64
2022-07-31T12:58:21.662Z,26.66
2022-07-31T13:00:48.201Z,26.70
2022-07-31T13:03:14.711Z,26.71
2022-07-31T13:05:41.067Z,26.75
2022-07-31T13:08:09.569Z,26.78
2022-07-31T13:10:35.932Z,26.80
2022-07-31T13:13:02.299Z,26.79
2022-07-31T13:15:28.687Z,26.79
2022-07-31T13:17:55.024Z,26.80
2022-07-31T13:20:21.463Z,26.77
2022-07-31T13:22:47.810Z,26.82
2022-07-31T13:25:14.184Z,26.84
2022-07-31T13:27:41.515Z,26.82
2022-07-31T13:30:07.960Z,26.85
2022-07-31T13:32:34.294Z,26.84
2022-07-31T13:35:19.529Z,26.85
2022-07-31T13:37:46.994Z,26.84
2022-07-31T13:40:13.293Z,26.86
2022-07-31T13:42:39.575Z,26.85
2022-07-31T13:45:08.336Z,26.85
2022-07-31T13:47:51.074Z,26.86
2022-07-31T13:50:18.505Z,26.87
2022-07-31T13:52:44.875Z,26.87
2022-07-31T13:55:11.231Z,26.89
2022-07-31T13:57:37.624Z,26.88
2022-07-31T14:00:03.957Z,26.87
2022-07-31T14:02:30.492Z,26.87
2022-07-31T14:04:56.893Z,26.86
2022-07-31T14:07:23.651Z,26.86
2022-07-31T14:10:09.979Z,26.87
2022-07-31T14:12:36.278Z,26.87
2022-07-31T14:15:02.701Z,26.87
2022-07-31T14:17:29.180Z,26.88
2022-07-31T14:19:55.694Z,26.90
2022-07-31T14:22:22.004Z,26.94
2022-07-31T14:24:50.822Z,26.97
2022-07-31T14:27:17.815Z,26.98
2022-07-31T14:29:44.236Z,26.97
2022-07-31T14:32:10.746Z,26.99
2022-07-31T14:34:37.183Z,26.97
2022-07-31T14:37:03.794Z,26.95
2022-07-31T14:39:30.378Z,26.91
2022-07-31T14:41:56.751Z,26.91
2022-07-31T14:44:28.630Z,26.93
2022-07-31T14:46:55.556Z,26.90
2022-07-31T14:49:21.917Z,26.90
2022-07-31T14:51:48.429Z,26.90
2022-07-31T14:54:14.701Z,26.90
2022-07-31T14:57:00.290Z,26.91
2022-07-31T14:59:27.555Z,26.90
2022-07-31T15:01:59.663Z,26.87
2022-07-31T15:04:25.976Z,26.88
2022-07-31T15:07:02.998Z,26.85
2022-07-31T15:09:38.616Z,26.86
2022-07-31T15:12:05.063Z,26.84
2022-07-31T15:14:31.346Z,26.84
2022-07-31T15:16:57.632Z,26.83
2022-07-31T15:19:24.074Z,26.84
2022-07-31T15:22:16.074Z,26.81
2022-07-31T15:24:37.006Z,26.80
2022-07-31T15:27:03.747Z,26.72
2022-07-31T15:30:04.406Z,26.68
2022-07-31T15:32:16.507Z,26.65
2022-07-31T15:34:42.869Z,26.53
2022-07-31T15:37:09.202Z,26.52
2022-07-31T15:39:35.532Z,26.53
2022-07-31T15:42:01.868Z,26.53
2022-07-31T15:44:28.292Z,26.52
2022-07-31T15:46:54.618Z,26.49
2022-07-31T15:49:21.029Z,26.48
2022-07-31T15:51:47.932Z,26.42
2022-07-31T15:54:14.286Z,26.48
2022-07-31T15:56:40.688Z,26.41
2022-07-31T15:59:06.962Z,26.37
2022-07-31T16:01:33.390Z,26.36
2022-07-31T16:03:59.759Z,26.38
2022-07-31T16:06:27.997Z,26.34
2022-07-31T16:08:58.789Z,26.31
2022-07-31T16:11:25.107Z,26.30
2022-07-31T16:14:11.408Z,26.33
2022-07-31T16:16:37.677Z,26.28
2022-07-31T16:19:04.260Z,26.26
2022-07-31T16:21:30.776Z,26.26
2022-07-31T16:23:57.152Z,26.28
2022-07-31T16:26:23.464Z,26.26
2022-07-31T16:28:54.044Z,26.27
2022-07-31T16:31:30.327Z,26.25
2022-07-31T16:33:57.085Z,26.24
2022-07-31T16:36:23.386Z,26.24
2022-07-31T16:39:17.678Z,26.22
2022-07-31T16:41:36.317Z,26.20
2022-07-31T16:44:02.640Z,26.21
2022-07-31T16:46:28.902Z,26.20
2022-07-31T16:48:55.311Z,26.17
2022-07-31T16:51:21.671Z,26.15
2022-07-31T16:54:10.857Z,26.13
2022-07-31T16:56:34.341Z,26.14
2022-07-31T16:59:00.667Z,26.13
2022-07-31T17:01:58.784Z,26.08
2022-07-31T17:04:13.415Z,26.08
2022-07-31T17:06:39.755Z,26.06
2022-07-31T17:09:17.543Z,26.01
2022-07-31T17:11:44.426Z,26.01
2022-07-31T17:14:11.153Z,26.00
2022-07-31T17:16:37.549Z,25.96
2022-07-31T17:19:05.637Z,25.96
2022-07-31T17:21:32.414Z,25.96
2022-07-31T17:23:59.490Z,25.96
2022-07-31T17:26:26.234Z,25.91
2022-07-31T17:28:55.525Z,25.89
2022-07-31T17:31:21.883Z,25.87
2022-07-31T17:33:54.548Z,25.87
2022-07-31T17:36:27.249Z,25.85
2022-07-31T17:38:53.605Z,25.84
2022-07-31T17:41:24.849Z,25.86
2022-07-31T17:43:53.325Z,25.86
2022-07-31T17:46:28.270Z,25.84
2022-07-31T17:49:01.292Z,25.82
2022-07-31T17:51:27.654Z,25.76
2022-07-31T17:54:00.384Z,25.78
2022-07-31T17:56:26.947Z,25.77
2022-07-31T17:58:53.305Z,25.73
2022-07-31T18:01:24.407Z,25.74
2022-07-31T18:03:54.776Z,25.73
2022-07-31T18:06:21.242Z,25.69
2022-07-31T18:08:47.691Z,25.68
2022-07-31T18:11:14.079Z,25.64
2022-07-31T18:13:48.711Z,25.63
2022-07-31T18:16:18.163Z,25.62
2022-07-31T18:18:44.465Z,25.65
2022-07-31T18:21:11.255Z,25.64
2022-07-31T18:23:37.553Z,25.61
2022-07-31T18:26:10.402Z,25.57
2022-07-31T18:28:36.772Z,25.56
2022-07-31T18:31:03.136Z,25.53
2022-07-31T18:33:29.555Z,25.53
2022-07-31T18:35:55.878Z,25.52
2022-07-31T18:38:22.204Z,25.48
2022-07-31T18:40:48.595Z,25.42
2022-07-31T18:43:14.886Z,25.35
2022-07-31T18:45:41.574Z,25.27
2022-07-31T18:48:08.298Z,25.16
2022-07-31T18:51:00.027Z,25.07
2022-07-31T18:53:20.963Z,25.08
2022-07-31T18:55:47.355Z,25.16
2022-07-31T18:58:13.674Z,25.02
2022-07-31T19:00:39.986Z,24.93
2022-07-31T19:03:06.299Z,24.90
2022-07-31T19:05:32.744Z,24.85
2022-07-31T19:07:59.106Z,24.84
2022-07-31T19:10:29.601Z,24.82
2022-07-31T19:12:57.418Z,24.82
2022-07-31T19:15:23.828Z,24.74
2022-07-31T19:17:50.152Z,24.74
2022-07-31T19:20:44.524Z,24.79
2022-07-31T19:23:03.803Z,24.76
2022-07-31T19:25:30.288Z,24.74
2022-07-31T19:28:16.602Z,24.79
2022-07-31T19:30:45.820Z,24.70
2022-07-31T19:33:12.486Z,24.73
2022-07-31T19:35:55.317Z,24.73
2022-07-31T19:38:25.304Z,24.77
2022-07-31T19:40:51.589Z,24.69
2022-07-31T19:43:18.038Z,24.65
2022-07-31T19:46:02.556Z,24.69
2022-07-31T19:48:33.314Z,24.71
2022-07-31T19:50:59.630Z,24.70
2022-07-31T19:53:26.074Z,24.63
2022-07-31T19:55:52.391Z,24.69
2022-07-31T19:58:18.711Z,24.63
2022-07-31T20:00:45.082Z,24.59
2022-07-31T20:03:11.535Z,24.56
2022-07-31T20:05:38.079Z,24.58
2022-07-31T20:08:04.552Z,24.67
2022-07-31T20:10:30.859Z,24.66
2022-07-31T20:12:57.254Z,24.66
2022-07-31T20:15:23.966Z,24.68
2022-07-31T20:17:50.285Z,24.64
2022-07-31T20:20:16.601Z,24.62
2022-07-31T20:22:43.075Z,24.68
2022-07-31T20:25:19.461Z,24.66
2022-07-31T20:27:46.723Z,24.64
2022-07-31T20:30:13.111Z,24.62
2022-07-31T20:32:48.607Z,24.61
2022-07-31T20:35:32.904Z,24.61
2022-07-31T20:38:01.664Z,24.52
2022-07-31T20:40:28.028Z,24.55
2022-07-31T20:42:54.362Z,24.45
2022-07-31T20:45:20.731Z,24.28
2022-07-31T20:47:47.089Z,24.23
2022-07-31T20:50:13.370Z,24.14
2022-07-31T20:52:39.815Z,24.09
2022-07-31T20:55:06.155Z,24.07
2022-07-31T20:57:32.570Z,23.95
2022-07-31T20:59:58.895Z,24.41
2022-07-31T21:02:27.536Z,25.08
2022-07-31T21:04:53.906Z,25.11
2022-07-31T21:07:20.502Z,25.01
2022-07-31T21:09:46.834Z,24.93
2022-07-31T21:12:13.313Z,24.82
2022-07-31T21:14:39.661Z,24.72
2022-07-31T21:17:05.942Z,24.60
2022-07-31T21:19:32.222Z,24.52
2022-07-31T21:21:58.652Z,24.48
2022-07-31T21:24:25.742Z,24.43
2022-07-31T21:26:52.340Z,24.37
2022-07-31T21:29:22.796Z,24.33
2022-07-31T21:31:50.198Z,24.35
2022-07-31T21:34:16.671Z,24.32
2022-07-31T21:36:42.968Z,24.33
2022-07-31T21:39:09.333Z,24.31
2022-07-31T21:41:45.270Z,24.26
2022-07-31T21:44:11.651Z,24.22
2022-07-31T21:46:41.278Z,24.18
2022-07-31T21:49:12.508Z,24.13
2022-07-31T21:51:38.891Z,24.09
2022-07-31T21:54:06.763Z,24.06
2022-07-31T21:56:33.039Z,24.04
2022-07-31T21:58:59.479Z,24.02
2022-07-31T22:01:25.989Z,23.98
2022-07-31T22:03:52.851Z,23.96
2022-07-31T22:06:23.224Z,23.95
2022-07-31T22:08:52.283Z,23.94
2022-07-31T22:11:18.579Z,23.92
2022-07-31T22:13:44.892Z,23.92
2022-07-31T22:16:11.165Z,23.88
2022-07-31T22:18:37.509Z,23.83
2022-07-31T22:21:03.799Z,23.76
2022-07-31T22:23:30.416Z,23.73
2022-07-31T22:25:56.715Z,23.68
2022-07-31T22:28:23.104Z,23.64
2022-07-31T22:30:49.416Z,23.61
2022-07-31T22:33:15.738Z,23.57
2022-07-31T22:35:42.043Z,23.53
2022-07-31T22:38:08.518Z,23.51
2022-07-31T22:40:34.788Z,23.48
2022-07-31T22:43:02.665Z,23.45
2022-07-31T22:45:29.865Z,23.44
2022-07-31T22:47:56.191Z,23.44
2022-07-31T22:50:22.535Z,23.44
2022-07-31T22:52:48.801Z,23.43
2022-07-31T22:55:15.170Z,23.44
2022-07-31T22:57:41.611Z,23.44
2022-07-31T23:00:07.987Z,23.43
2022-07-31T23:02:34.383Z,23.44
2022-07-31T23:05:00.719Z,23.44
2022-07-31T23:07:27.007Z,23.45
2022-07-31T23:09:53.308Z,23.43
2022-07-31T23:12:19.694Z,23.43
2022-07-31T23:14:46.147Z,23.44
2022-07-31T23:17:22.486Z,23.46
2022-07-31T23:19:50.055Z,23.43
2022-07-31T23:22:20.891Z,23.40
2022-07-31T23:24:59.908Z,23.37
2022-07-31T23:27:26.289Z,23.35
2022-07-31T23:29:52.698Z,23.31
2022-07-31T23:32:19.079Z,23.32
2022-07-31T23:34:46.598Z,23.32
2022-07-31T23:37:13.009Z,23.30
2022-07-31T23:39:39.404Z,23.30
2022-07-31T23:42:05.926Z,23.29
2022-07-31T23:44:32.354Z,23.28
2022-07-31T23:47:06.450Z,23.27
2022-07-31T23:49:32.892Z,23.26
2022-07-31T23:51:59.272Z,23.26
2022-07-31T23:54:25.653Z,23.25
2022-07-31T23:56:52.063Z,23.25
2022-07-31T23:59:18.461Z,23.25
